SARM/MCS METAR and TAF weather

Enter ICAO airport designator
Station Type Date Time Source
SARM METAR 2018/12/11 23:20 UTC NOAA

SARM 112320Z 02006KT 8000 TS 29/23 Q0999


Station Type Date Time Source
SARM Decoded METAR 2018/12/11 23:20 UTC NOAA

Monte Caseros Aerodrome, Argentina (SARM) 30-16S 057-39W 54M
Dec 11, 2018 - 06:20 PM EST / 2018.12.11 2320 UTC
Wind: from the NNE (020 degrees) at 7 MPH (6 KT):0
Visibility: 4 mile(s):0
Weather: thunder
Temperature: 84 F (29 C)
Dew Point: 73 F (23 C)
Relative Humidity: 70%
Pressure (altimeter): 29.50 in. Hg (0999 hPa)
ob: SARM 112320Z 02006KT 8000 TS 29/23 Q0999
cycle: 23

Station Type Date Time Source
SARM TAF UTC NOAA

Error!


Example: see airport list